Time;durP1;ratioP1;P1;durP2;ratioP2;P2;SDS_P1;SDS_P2;PMS_P1;PMS_P2;Temp;Humidity;BMP_temperature;BMP_pressure;BME280_temperature;BME280_humidity;BME280_pressure;Samples;Min_cycle;Max_cycle;Signal;HPM_P1;HPM_P2
2023/09/23 00:00:47;;;;;;;3.73;3.20;;;10.20;99.90;;;;;;5090213;28;20218;-84
2023/09/23 00:03:14;;;;;;;2.97;2.67;;;10.20;99.90;;;;;;5086920;27;20243;-84
2023/09/23 00:05:41;;;;;;;4.30;3.00;;;10.20;99.90;;;;;;5086324;28;20797;-84
2023/09/23 00:08:08;;;;;;;3.57;2.90;;;10.20;99.90;;;;;;5090669;27;20218;-84
2023/09/23 00:10:35;;;;;;;2.80;2.50;;;10.20;99.90;;;;;;5106221;28;20295;-84
2023/09/23 00:13:02;;;;;;;3.30;3.00;;;10.20;99.90;;;;;;5107434;28;20326;-85
2023/09/23 00:15:30;;;;;;;3.70;2.97;;;10.10;99.90;;;;;;5106978;28;21019;-85
2023/09/23 00:17:58;;;;;;;3.23;2.60;;;10.20;99.90;;;;;;5108643;27;20305;-84
2023/09/23 00:20:27;;;;;;;3.27;2.67;;;10.20;99.90;;;;;;5108847;27;20246;-83
2023/09/23 00:22:56;;;;;;;3.23;2.93;;;10.20;99.90;;;;;;5099341;28;20227;-86
2023/09/23 00:25:23;;;;;;;2.70;2.50;;;10.30;99.90;;;;;;5095092;28;20226;-85
2023/09/23 00:27:54;;;;;;;3.53;2.40;;;10.30;99.90;;;;;;5104316;28;20802;-83
2023/09/23 00:30:22;;;;;;;3.10;2.20;;;10.30;99.90;;;;;;5098785;28;20812;-84
2023/09/23 00:32:49;;;;;;;3.17;2.47;;;10.40;99.90;;;;;;5104416;27;20228;-84
2023/09/23 00:35:18;;;;;;;2.73;2.30;;;10.40;99.90;;;;;;5100709;28;20225;-85
2023/09/23 00:37:48;;;;;;;4.53;2.73;;;10.50;99.90;;;;;;5105211;28;20216;-84
2023/09/23 00:40:17;;;;;;;2.43;2.23;;;10.50;99.90;;;;;;5099706;28;20227;-84
2023/09/23 00:42:47;;;;;;;3.47;2.60;;;10.60;99.90;;;;;;5110123;28;20222;-84
2023/09/23 00:45:16;;;;;;;3.57;2.87;;;10.70;99.90;;;;;;5109053;28;20230;-86
2023/09/23 00:47:44;;;;;;;3.23;2.23;;;10.80;99.90;;;;;;5109745;28;20305;-88
2023/09/23 00:50:18;;;;;;;4.23;2.30;;;10.80;99.90;;;;;;5114942;27;20214;-86
2023/09/23 00:52:48;;;;;;;2.37;2.07;;;10.90;99.90;;;;;;5108165;28;20751;-83
2023/09/23 00:55:16;;;;;;;5.20;2.80;;;11.00;99.90;;;;;;5107251;28;20256;-84
2023/09/23 00:57:52;;;;;;;4.57;2.77;;;11.10;99.90;;;;;;5110080;28;20235;-85
2023/09/23 01:00:24;;;;;;;3.17;2.47;;;11.20;99.90;;;;;;5106721;28;20221;-84
2023/09/23 01:02:52;;;;;;;9.80;3.37;;;11.20;99.90;;;;;;5110134;28;20227;-84
2023/09/23 01:05:19;;;;;;;6.43;3.60;;;11.30;99.90;;;;;;5106222;27;20759;-85
2023/09/23 01:07:48;;;;;;;3.43;3.10;;;11.30;99.90;;;;;;5101166;27;20218;-84
2023/09/23 01:10:16;;;;;;;6.70;3.47;;;11.30;99.90;;;;;;5090827;28;20657;-85
2023/09/23 01:12:44;;;;;;;5.37;3.90;;;11.30;99.90;;;;;;5097105;27;20229;-85
2023/09/23 01:15:11;;;;;;;9.57;4.37;;;11.30;99.90;;;;;;5104522;28;20741;-83
2023/09/23 01:17:37;;;;;;;6.33;4.00;;;11.30;99.90;;;;;;5109541;28;20224;-84
2023/09/23 01:20:10;;;;;;;3.80;3.50;;;11.30;99.90;;;;;;5108534;28;20228;-83
2023/09/23 01:22:39;;;;;;;3.73;3.40;;;11.30;99.90;;;;;;5103023;28;20719;-83
2023/09/23 01:25:07;;;;;;;4.10;3.70;;;11.30;99.90;;;;;;5107701;28;20240;-83
2023/09/23 01:27:34;;;;;;;4.87;3.87;;;11.40;99.90;;;;;;5101365;27;20307;-84
2023/09/23 01:30:03;;;;;;;5.90;3.80;;;11.40;99.90;;;;;;5097010;28;20727;-83
2023/09/23 01:32:37;;;;;;;4.80;3.97;;;11.40;99.90;;;;;;5099522;27;20224;-83
2023/09/23 01:35:05;;;;;;;5.00;3.43;;;11.40;99.90;;;;;;5095089;27;20226;-83
2023/09/23 01:37:31;;;;;;;4.20;3.77;;;11.40;99.90;;;;;;5094026;27;20307;-83
2023/09/23 01:39:59;;;;;;;4.23;3.83;;;11.40;99.90;;;;;;5095674;28;20216;-83
2023/09/23 01:42:28;;;;;;;5.03;4.43;;;11.40;99.90;;;;;;5106793;28;20755;-82
2023/09/23 01:44:57;;;;;;;5.97;4.63;;;11.50;99.90;;;;;;5109446;28;20249;-83
2023/09/23 01:47:24;;;;;;;4.77;4.37;;;11.50;99.90;;;;;;5106779;28;20892;-83
2023/09/23 01:49:51;;;;;;;7.07;4.93;;;11.50;99.90;;;;;;5107926;28;20742;-83
2023/09/23 01:52:18;;;;;;;5.77;4.63;;;11.50;99.90;;;;;;5107893;27;20226;-83
2023/09/23 01:54:45;;;;;;;6.90;4.70;;;11.50;99.90;;;;;;5106289;27;20282;-82
2023/09/23 01:57:16;;;;;;;5.43;4.93;;;11.60;99.90;;;;;;5100046;28;20738;-82
2023/09/23 01:59:44;;;;;;;5.43;4.93;;;11.60;99.90;;;;;;5104450;27;20237;-81
2023/09/23 02:02:11;;;;;;;8.97;5.43;;;11.60;99.90;;;;;;5098586;27;20309;-81
2023/09/23 02:04:40;;;;;;;6.10;5.33;;;11.60;99.90;;;;;;5098836;28;20241;-81
2023/09/23 02:07:07;;;;;;;6.13;5.27;;;11.70;99.90;;;;;;5097242;27;20221;-81
2023/09/23 02:09:37;;;;;;;6.13;5.30;;;11.70;99.90;;;;;;5102369;27;20226;-81
2023/09/23 02:12:04;;;;;;;5.97;5.10;;;11.70;99.90;;;;;;5099689;28;20225;-81
2023/09/23 02:14:33;;;;;;;5.67;5.00;;;11.70;99.90;;;;;;5102946;27;20692;-81
2023/09/23 02:16:59;;;;;;;5.90;5.30;;;11.80;99.90;;;;;;5103234;27;20221;-82
2023/09/23 02:19:27;;;;;;;6.90;6.20;;;11.80;99.90;;;;;;5106427;28;20223;-82
2023/09/23 02:21:54;;;;;;;8.23;6.20;;;11.80;99.90;;;;;;5103302;27;21029;-81
2023/09/23 02:24:21;;;;;;;6.70;5.63;;;11.80;99.90;;;;;;5093143;28;20218;-81
2023/09/23 02:26:48;;;;;;;6.43;5.83;;;11.90;99.90;;;;;;5102132;28;20236;-80
2023/09/23 02:29:15;;;;;;;6.47;5.87;;;11.90;99.90;;;;;;5101351;28;20217;-81
2023/09/23 02:31:47;;;;;;;8.03;6.40;;;11.90;99.90;;;;;;5096449;28;20682;-80
2023/09/23 02:34:16;;;;;;;6.70;6.10;;;11.90;99.90;;;;;;5096599;28;20615;-81
2023/09/23 02:36:45;;;;;;;6.90;6.20;;;11.90;99.90;;;;;;5098248;28;20257;-80
2023/09/23 02:39:15;;;;;;;6.90;6.20;;;11.90;99.90;;;;;;5106820;27;20222;-80
2023/09/23 02:41:45;;;;;;;7.47;6.37;;;11.90;99.90;;;;;;5107335;28;20719;-80
2023/09/23 02:44:18;;;;;;;7.47;6.67;;;11.90;99.90;;;;;;5106544;28;20256;-80
2023/09/23 02:46:47;;;;;;;8.10;7.00;;;11.90;99.90;;;;;;5105639;28;20231;-80
2023/09/23 02:49:14;;;;;;;7.50;6.63;;;11.90;99.90;;;;;;5099548;28;20235;-81
2023/09/23 02:51:42;;;;;;;8.23;6.50;;;11.90;99.90;;;;;;5101033;28;20222;-81
2023/09/23 02:54:10;;;;;;;9.33;6.93;;;11.90;99.90;;;;;;5100706;27;20226;-81
2023/09/23 02:56:38;;;;;;;7.77;7.03;;;11.90;99.90;;;;;;5102217;28;20229;-81
2023/09/23 02:59:11;;;;;;;9.63;7.20;;;12.00;99.90;;;;;;5105591;28;20325;-81
2023/09/23 03:01:42;;;;;;;7.80;7.00;;;12.00;99.90;;;;;;5095386;28;20226;-81
2023/09/23 03:04:16;;;;;;;8.20;7.40;;;12.00;99.90;;;;;;5095465;27;20305;-81
2023/09/23 03:06:49;;;;;;;8.70;7.80;;;12.00;99.90;;;;;;5096642;28;20272;-81
2023/09/23 03:09:19;;;;;;;9.00;8.10;;;12.00;99.90;;;;;;5097746;27;20234;-81
2023/09/23 03:11:49;;;;;;;7.80;7.10;;;12.10;99.90;;;;;;5097960;27;20250;-81
2023/09/23 03:14:18;;;;;;;9.93;8.50;;;12.10;99.90;;;;;;5097513;28;20218;-81
2023/09/23 03:16:49;;;;;;;8.67;7.70;;;12.10;99.90;;;;;;5098637;28;20573;-80
2023/09/23 03:19:22;;;;;;;9.07;8.17;;;12.10;99.90;;;;;;5108227;27;20292;-81
2023/09/23 03:21:50;;;;;;;9.10;8.20;;;12.10;99.90;;;;;;5105908;28;20229;-80
2023/09/23 03:24:17;;;;;;;10.53;8.43;;;12.10;99.90;;;;;;5100267;27;20651;-81
2023/09/23 03:26:46;;;;;;;8.80;7.97;;;12.10;99.90;;;;;;5101302;27;20222;-81
2023/09/23 03:29:14;;;;;;;9.47;8.47;;;12.10;99.90;;;;;;5096712;28;20229;-81
2023/09/23 03:31:41;;;;;;;8.63;7.83;;;12.00;99.90;;;;;;5097645;28;20226;-81
2023/09/23 03:34:08;;;;;;;9.47;8.50;;;12.00;99.90;;;;;;5094960;28;20218;-82
2023/09/23 03:36:36;;;;;;;10.90;8.07;;;12.00;99.90;;;;;;5100255;28;20232;-82
2023/09/23 03:39:03;;;;;;;10.20;8.70;;;12.00;99.90;;;;;;5096884;28;20217;-82
2023/09/23 03:41:30;;;;;;;10.13;8.43;;;12.00;99.90;;;;;;5104039;28;20222;-82
2023/09/23 03:43:57;;;;;;;10.20;9.20;;;12.00;99.90;;;;;;5100537;28;20237;-81
2023/09/23 03:46:24;;;;;;;10.07;8.93;;;12.00;99.90;;;;;;5100641;28;20359;-81
2023/09/23 03:48:51;;;;;;;9.80;8.80;;;12.00;99.90;;;;;;5098621;28;20232;-82
2023/09/23 03:51:18;;;;;;;10.63;9.17;;;12.00;99.90;;;;;;5095809;28;20218;-82
2023/09/23 03:53:48;;;;;;;10.97;9.30;;;12.00;99.90;;;;;;5101738;28;20250;-82
2023/09/23 03:56:15;;;;;;;10.97;9.87;;;12.00;99.90;;;;;;5099236;27;20225;-82
2023/09/23 03:58:43;;;;;;;11.73;9.53;;;12.00;99.90;;;;;;5097625;27;20224;-82
2023/09/23 04:01:13;;;;;;;10.00;9.00;;;12.00;99.90;;;;;;5102321;28;20214;-81
2023/09/23 04:03:40;;;;;;;10.37;9.37;;;12.00;99.90;;;;;;5102191;28;20238;-81
2023/09/23 04:06:07;;;;;;;9.70;8.70;;;12.00;99.90;;;;;;5101353;27;20242;-81
2023/09/23 04:08:34;;;;;;;10.13;9.23;;;12.00;99.90;;;;;;5106502;28;20286;-81
2023/09/23 04:11:04;;;;;;;9.83;8.93;;;12.00;99.90;;;;;;5102529;28;20244;-81
2023/09/23 04:13:31;;;;;;;10.20;9.13;;;12.00;99.90;;;;;;5107000;28;20757;-82
2023/09/23 04:16:00;;;;;;;8.97;8.07;;;12.00;99.90;;;;;;5102971;28;20232;-83
2023/09/23 04:18:27;;;;;;;9.17;8.20;;;12.00;99.90;;;;;;5103153;28;20635;-83
2023/09/23 04:20:53;;;;;;;9.70;8.27;;;12.00;99.90;;;;;;5101080;28;20350;-83
2023/09/23 04:23:20;;;;;;;8.97;8.07;;;12.00;99.90;;;;;;5097288;28;20231;-82
2023/09/23 04:25:49;;;;;;;10.80;9.30;;;12.00;99.90;;;;;;5108558;28;20234;-81
2023/09/23 04:28:17;;;;;;;12.10;10.80;;;12.00;99.90;;;;;;5094960;27;20474;-80
2023/09/23 04:30:43;;;;;;;13.73;11.40;;;12.00;99.90;;;;;;5108725;28;20221;-80
2023/09/23 04:33:11;;;;;;;14.60;11.70;;;12.00;99.90;;;;;;5104037;28;20226;-80
2023/09/23 04:35:38;;;;;;;12.60;11.40;;;12.00;99.90;;;;;;5103683;28;20233;-80
2023/09/23 04:38:05;;;;;;;14.30;12.60;;;12.00;99.90;;;;;;5107023;28;20312;-80
2023/09/23 04:40:32;;;;;;;13.60;12.20;;;12.00;99.90;;;;;;5105694;27;20229;-81
2023/09/23 04:42:58;;;;;;;13.03;11.73;;;12.00;99.90;;;;;;5103691;27;20249;-80
2023/09/23 04:45:26;;;;;;;13.13;11.87;;;12.00;99.90;;;;;;5102951;27;20350;-82
2023/09/23 04:47:53;;;;;;;15.80;13.27;;;12.00;99.90;;;;;;5103525;28;20309;-79
2023/09/23 04:50:22;;;;;;;15.00;12.80;;;12.00;99.90;;;;;;5103480;28;20825;-81
2023/09/23 04:52:50;;;;;;;14.37;12.97;;;12.00;99.90;;;;;;5105760;28;20251;-80
2023/09/23 04:55:17;;;;;;;14.43;12.93;;;12.00;99.90;;;;;;5105607;28;20887;-81
2023/09/23 04:57:44;;;;;;;15.90;13.37;;;12.00;99.90;;;;;;5099768;27;20222;-81
2023/09/23 05:00:15;;;;;;;14.07;12.60;;;12.00;99.90;;;;;;5106260;28;20220;-81
2023/09/23 05:02:43;;;;;;;13.60;12.20;;;12.00;99.90;;;;;;5107469;28;20267;-81
2023/09/23 05:05:11;;;;;;;13.13;11.20;;;12.00;99.90;;;;;;5103130;27;20222;-81
2023/09/23 05:07:38;;;;;;;12.83;11.30;;;12.00;99.90;;;;;;5106006;28;20987;-80
2023/09/23 05:10:06;;;;;;;13.60;11.97;;;12.10;99.90;;;;;;5101973;28;20229;-80
2023/09/23 05:12:33;;;;;;;13.47;11.70;;;12.10;99.90;;;;;;5098654;28;20226;-81
2023/09/23 05:15:00;;;;;;;15.47;13.67;;;12.10;99.90;;;;;;5102725;28;20220;-80
2023/09/23 05:17:28;;;;;;;13.13;11.60;;;12.10;99.90;;;;;;5100623;28;20237;-81
2023/09/23 05:19:56;;;;;;;15.90;12.90;;;12.10;99.90;;;;;;5102545;28;20280;-81
2023/09/23 05:22:23;;;;;;;15.23;13.33;;;12.10;99.90;;;;;;5100667;27;20705;-82
2023/09/23 05:24:56;;;;;;;15.40;13.80;;;12.10;99.90;;;;;;5103700;28;20917;-81
2023/09/23 05:27:24;;;;;;;16.83;14.73;;;12.10;99.90;;;;;;5108740;27;20307;-81
2023/09/23 05:29:53;;;;;;;16.80;15.03;;;12.10;99.90;;;;;;5108002;28;20904;-80
2023/09/23 05:32:20;;;;;;;19.63;17.07;;;12.10;99.90;;;;;;5099509;27;20752;-81
2023/09/23 05:34:51;;;;;;;20.97;17.03;;;12.10;99.90;;;;;;5109496;28;20907;-81
2023/09/23 05:37:19;;;;;;;23.13;19.00;;;12.10;99.90;;;;;;5110457;28;20307;-81
2023/09/23 05:39:45;;;;;;;21.70;19.43;;;12.20;99.90;;;;;;5109120;28;20585;-81
2023/09/23 05:42:15;;;;;;;21.77;18.53;;;12.20;99.90;;;;;;5110738;28;20253;-81
2023/09/23 05:44:43;;;;;;;20.90;18.67;;;12.20;99.90;;;;;;5111454;28;20250;-81
2023/09/23 05:47:10;;;;;;;22.27;19.87;;;12.20;99.90;;;;;;5110901;27;20227;-81
2023/09/23 05:49:38;;;;;;;21.87;19.57;;;12.20;99.90;;;;;;5101285;28;20214;-81
2023/09/23 05:52:05;;;;;;;26.67;19.07;;;12.20;99.90;;;;;;5105535;28;20229;-81
2023/09/23 05:54:33;;;;;;;20.70;18.13;;;12.20;99.90;;;;;;5111198;28;20225;-81
2023/09/23 05:57:00;;;;;;;19.37;17.20;;;12.20;99.90;;;;;;5100359;28;20225;-81
2023/09/23 05:59:27;;;;;;;20.10;17.53;;;12.20;99.90;;;;;;5101741;28;20712;-81
2023/09/23 06:01:54;;;;;;;17.90;16.07;;;12.20;99.90;;;;;;5097410;28;20222;-81
2023/09/23 06:04:20;;;;;;;18.97;16.97;;;12.20;99.90;;;;;;5105584;28;20223;-81
2023/09/23 06:06:47;;;;;;;19.43;17.33;;;12.20;99.90;;;;;;5105286;28;20216;-80
2023/09/23 06:09:15;;;;;;;19.30;17.30;;;12.30;99.90;;;;;;5098614;28;20226;-82
2023/09/23 06:11:43;;;;;;;18.43;16.27;;;12.30;99.90;;;;;;5110078;28;20356;-82
2023/09/23 06:14:11;;;;;;;19.00;17.00;;;12.30;99.90;;;;;;5108344;28;20580;-84
2023/09/23 06:16:38;;;;;;;19.20;17.20;;;12.30;99.90;;;;;;5101664;28;20929;-82
2023/09/23 06:19:05;;;;;;;20.97;16.87;;;12.30;99.90;;;;;;5107583;28;20225;-83
2023/09/23 06:21:31;;;;;;;20.93;17.80;;;12.30;99.90;;;;;;5109402;28;20228;-83
2023/09/23 06:23:58;;;;;;;18.97;15.80;;;12.40;99.90;;;;;;5106205;27;20295;-83
2023/09/23 06:26:25;;;;;;;20.07;17.10;;;12.50;99.90;;;;;;5105118;28;20229;-83
2023/09/23 06:28:53;;;;;;;18.70;16.80;;;12.40;99.90;;;;;;5101476;28;20229;-83
2023/09/23 06:31:20;;;;;;;20.20;17.30;;;12.50;99.90;;;;;;5098225;28;20219;-84
2023/09/23 06:33:46;;;;;;;19.77;17.43;;;12.50;99.90;;;;;;5105416;27;20236;-84
2023/09/23 06:36:13;;;;;;;20.57;17.97;;;12.50;99.90;;;;;;5096066;28;20233;-83
2023/09/23 06:38:40;;;;;;;22.57;17.97;;;12.50;99.90;;;;;;5118470;27;20228;-84
2023/09/23 06:41:06;;;;;;;23.27;18.40;;;12.50;99.90;;;;;;5101211;28;20223;-82
2023/09/23 06:43:34;;;;;;;20.73;17.97;;;12.60;99.90;;;;;;5101684;28;20246;-82
2023/09/23 06:46:03;;;;;;;21.03;17.27;;;12.60;99.90;;;;;;5103074;27;20316;-80
2023/09/23 06:48:30;;;;;;;19.97;17.57;;;12.70;99.90;;;;;;5100054;28;20232;-80
2023/09/23 06:50:57;;;;;;;21.30;18.60;;;12.70;99.90;;;;;;5104627;28;20229;-80
2023/09/23 06:53:24;;;;;;;24.90;18.47;;;12.80;99.90;;;;;;5101467;28;20237;-81
2023/09/23 06:55:51;;;;;;;19.73;17.67;;;12.90;99.90;;;;;;5106512;28;20228;-81
2023/09/23 06:58:18;;;;;;;18.73;16.83;;;12.90;99.90;;;;;;5104681;28;20294;-81
2023/09/23 07:00:44;;;;;;;18.47;16.57;;;13.00;99.90;;;;;;5104163;28;20223;-81
2023/09/23 07:03:12;;;;;;;19.13;17.03;;;13.00;99.90;;;;;;5101974;28;20755;-81
2023/09/23 07:05:39;;;;;;;18.97;16.87;;;13.00;99.90;;;;;;5103719;28;20233;-81
2023/09/23 07:08:07;;;;;;;19.40;17.00;;;13.10;99.90;;;;;;5101718;28;20221;-81
2023/09/23 07:10:35;;;;;;;17.60;14.80;;;13.00;99.90;;;;;;5103707;28;20230;-81
2023/09/23 07:13:03;;;;;;;13.60;12.20;;;13.10;99.90;;;;;;5101062;27;20214;-81
2023/09/23 07:15:31;;;;;;;11.57;10.37;;;13.10;99.90;;;;;;5115882;27;20249;-82
2023/09/23 07:17:58;;;;;;;10.77;9.67;;;13.20;99.90;;;;;;5105049;28;20225;-81
2023/09/23 07:20:27;;;;;;;10.77;9.67;;;13.20;99.90;;;;;;5098510;28;20236;-81
2023/09/23 07:22:54;;;;;;;11.30;10.20;;;13.20;99.90;;;;;;5103382;28;20220;-81
2023/09/23 07:25:21;;;;;;;11.40;10.10;;;13.20;99.90;;;;;;5098881;28;20227;-80
2023/09/23 07:27:47;;;;;;;10.47;8.03;;;13.20;99.90;;;;;;5104642;28;20229;-80
2023/09/23 07:30:15;;;;;;;7.73;7.00;;;13.30;99.90;;;;;;5102058;28;20251;-81
2023/09/23 07:32:42;;;;;;;7.83;7.03;;;13.40;99.90;;;;;;5103361;28;20233;-80
2023/09/23 07:35:09;;;;;;;7.07;6.37;;;13.50;99.90;;;;;;5098926;28;20312;-79
2023/09/23 07:37:37;;;;;;;6.13;5.53;;;13.60;99.90;;;;;;5100530;27;20229;-80
2023/09/23 07:40:06;;;;;;;6.53;5.93;;;13.60;99.90;;;;;;5101767;28;20227;-80
2023/09/23 07:42:32;;;;;;;5.80;5.17;;;13.60;99.90;;;;;;5096907;28;20953;-81
2023/09/23 07:44:59;;;;;;;6.27;5.07;;;13.60;99.90;;;;;;5102038;28;20302;-81
2023/09/23 07:47:26;;;;;;;5.60;4.60;;;13.60;99.90;;;;;;5106441;28;20716;-82
2023/09/23 07:49:53;;;;;;;4.20;3.83;;;13.60;99.90;;;;;;5103257;28;20209;-81
2023/09/23 07:52:19;;;;;;;4.93;3.53;;;13.60;99.90;;;;;;5102624;28;20708;-82
2023/09/23 07:54:47;;;;;;;4.87;4.37;;;13.60;99.90;;;;;;5095938;22;20304;-82
2023/09/23 07:57:14;;;;;;;4.70;4.20;;;13.60;99.90;;;;;;5036196;28;20229;-82
2023/09/23 07:59:41;;;;;;;4.00;3.60;;;13.70;99.90;;;;;;5047216;28;20217;-81
2023/09/23 08:02:08;;;;;;;5.13;3.90;;;13.70;99.90;;;;;;5043859;28;20267;-81
2023/09/23 08:04:35;;;;;;;3.77;3.37;;;13.80;99.90;;;;;;5038514;28;20232;-82
2023/09/23 08:07:02;;;;;;;3.77;3.40;;;14.00;99.90;;;;;;5030251;28;20764;-81
2023/09/23 08:09:28;;;;;;;3.40;3.10;;;14.10;99.90;;;;;;5044339;28;20230;-82
2023/09/23 08:11:56;;;;;;;3.43;3.10;;;14.20;99.90;;;;;;5037002;28;20237;-82
2023/09/23 08:14:23;;;;;;;4.13;3.00;;;14.30;99.90;;;;;;5031537;28;20232;-81
2023/09/23 08:16:51;;;;;;;4.50;3.20;;;14.40;99.90;;;;;;5013712;28;20235;-81
2023/09/23 08:19:18;;;;;;;3.80;2.87;;;14.50;99.90;;;;;;5044285;28;20227;-81
2023/09/23 08:21:45;;;;;;;2.40;2.20;;;14.70;99.90;;;;;;5042315;28;20264;-81
2023/09/23 08:24:12;;;;;;;3.90;2.37;;;14.80;99.90;;;;;;5041706;28;20724;-81
2023/09/23 08:26:39;;;;;;;3.97;2.27;;;14.90;99.90;;;;;;5022794;28;20234;-81
2023/09/23 08:29:07;;;;;;;2.57;2.30;;;15.00;99.90;;;;;;5033714;28;20351;-81
2023/09/23 08:31:34;;;;;;;2.60;2.40;;;15.10;99.90;;;;;;5023089;28;20242;-81
2023/09/23 08:34:02;;;;;;;3.20;2.60;;;15.20;99.90;;;;;;5027320;28;20221;-81
2023/09/23 08:36:29;;;;;;;2.60;2.40;;;15.40;99.90;;;;;;5065675;28;20223;-81
2023/09/23 08:38:56;;;;;;;2.53;2.20;;;15.60;99.90;;;;;;5062719;28;20219;-81
2023/09/23 08:41:23;;;;;;;4.70;2.47;;;15.90;99.90;;;;;;5064070;28;20223;-81
2023/09/23 08:43:52;;;;;;;2.90;1.90;;;16.20;99.90;;;;;;5060944;28;20743;-80
2023/09/23 08:46:21;;;;;;;2.50;2.10;;;16.40;99.90;;;;;;5075509;28;20611;-81
2023/09/23 08:48:48;;;;;;;2.23;1.97;;;16.60;99.90;;;;;;5058291;28;20631;-81
2023/09/23 08:51:19;;;;;;;2.93;2.00;;;16.80;99.90;;;;;;5061063;28;20360;-81
2023/09/23 08:53:47;;;;;;;3.67;2.17;;;17.00;99.90;;;;;;5062854;28;20223;-80
2023/09/23 08:56:14;;;;;;;2.47;1.97;;;17.10;99.90;;;;;;5060886;28;20247;-81
2023/09/23 08:58:42;;;;;;;1.97;1.80;;;17.20;99.90;;;;;;5063947;28;20219;-80
2023/09/23 09:01:09;;;;;;;3.47;1.83;;;17.30;99.90;;;;;;5064437;28;20227;-81
2023/09/23 09:03:38;;;;;;;3.13;2.00;;;17.40;99.90;;;;;;5063342;28;20247;-81
2023/09/23 09:06:16;;;;;;;2.30;2.00;;;17.40;99.90;;;;;;5065072;28;20519;-81
2023/09/23 09:08:43;;;;;;;5.20;2.20;;;17.40;99.90;;;;;;5056317;28;20219;-82
2023/09/23 09:11:10;;;;;;;3.43;1.77;;;17.40;99.90;;;;;;5058198;28;20259;-80
2023/09/23 09:13:37;;;;;;;2.47;2.27;;;17.30;99.90;;;;;;5065548;28;20227;-81
2023/09/23 09:16:05;;;;;;;3.93;3.00;;;17.20;99.90;;;;;;5063588;28;20276;-81
2023/09/23 09:18:32;;;;;;;3.65;2.80;;;17.10;99.90;;;;;;5061077;28;20211;-82
2023/09/23 09:21:00;;;;;;;4.50;2.57;;;17.10;99.90;;;;;;5062185;28;20215;-81
2023/09/23 09:23:32;;;;;;;4.03;3.00;;;17.10;99.90;;;;;;5061126;28;20233;-81
2023/09/23 09:25:59;;;;;;;3.07;2.80;;;17.20;99.90;;;;;;5060717;28;20238;-82
2023/09/23 09:28:26;;;;;;;5.50;3.03;;;17.20;99.90;;;;;;5056924;28;20243;-81
2023/09/23 09:30:57;;;;;;;4.33;3.50;;;17.10;99.90;;;;;;5062814;28;20223;-81
2023/09/23 09:33:27;;;;;;;3.30;3.00;;;17.10;99.90;;;;;;5048056;28;20239;-81
2023/09/23 09:35:55;;;;;;;3.50;3.00;;;17.20;99.90;;;;;;5053607;28;20225;-81
2023/09/23 09:38:25;;;;;;;5.07;3.37;;;17.30;99.90;;;;;;5062592;28;20220;-81
2023/09/23 09:40:56;;;;;;;3.40;3.10;;;17.30;99.90;;;;;;5049450;28;20231;-82
2023/09/23 09:43:25;;;;;;;3.40;2.90;;;17.30;99.90;;;;;;5057401;28;20242;-82
2023/09/23 09:45:54;;;;;;;5.37;2.90;;;17.30;99.90;;;;;;5063055;28;20227;-81
2023/09/23 09:48:21;;;;;;;2.70;2.50;;;17.30;99.90;;;;;;5059299;28;20228;-82
2023/09/23 09:50:49;;;;;;;4.20;2.60;;;17.30;99.90;;;;;;5059947;28;20323;-81
2023/09/23 09:53:19;;;;;;;3.87;2.70;;;17.40;99.90;;;;;;5059579;28;20901;-82
2023/09/23 09:55:47;;;;;;;2.65;2.45;;;17.50;99.90;;;;;;5060859;28;20224;-82
2023/09/23 09:58:14;;;;;;;2.53;2.20;;;17.50;99.90;;;;;;5055708;28;20230;-82
2023/09/23 10:00:43;;;;;;;3.40;2.53;;;17.60;99.90;;;;;;5057641;28;20230;-82
2023/09/23 10:03:12;;;;;;;3.23;2.33;;;17.80;99.90;;;;;;5055921;28;20224;-82
2023/09/23 10:05:42;;;;;;;2.87;2.40;;;17.90;99.90;;;;;;5061032;28;20305;-82
2023/09/23 10:08:15;;;;;;;2.23;2.00;;;18.00;99.90;;;;;;5058456;28;20231;-82
2023/09/23 10:10:48;;;;;;;4.03;2.30;;;18.10;99.90;;;;;;5061356;28;20771;-82
2023/09/23 10:13:15;;;;;;;2.20;2.00;;;18.30;99.90;;;;;;5070473;28;20220;-81
2023/09/23 10:15:43;;;;;;;3.15;2.13;;;18.40;99.90;;;;;;5060827;28;20249;-82
2023/09/23 10:18:11;;;;;;;1.92;1.83;;;18.50;99.90;;;;;;5057634;28;20251;-82
2023/09/23 10:20:42;;;;;;;2.97;2.00;;;18.60;99.90;;;;;;5052432;28;20222;-82
2023/09/23 10:23:10;;;;;;;2.55;2.00;;;18.70;99.90;;;;;;5059085;28;20226;-82
2023/09/23 10:25:38;;;;;;;2.25;2.05;;;18.70;99.90;;;;;;5054556;28;20272;-82
2023/09/23 10:28:07;;;;;;;3.83;2.25;;;18.70;99.90;;;;;;5057044;28;20219;-83
2023/09/23 10:30:35;;;;;;;3.45;2.60;;;18.60;99.90;;;;;;5061218;28;20255;-82
2023/09/23 10:33:03;;;;;;;2.28;1.92;;;18.60;99.90;;;;;;5049235;28;20865;-82
2023/09/23 10:35:29;;;;;;;2.65;2.10;;;18.50;99.90;;;;;;5059782;28;20819;-82
2023/09/23 10:37:56;;;;;;;4.68;2.30;;;18.60;99.90;;;;;;5060012;28;20227;-82
2023/09/23 10:40:23;;;;;;;4.32;2.72;;;18.70;99.90;;;;;;5053288;28;20216;-82
2023/09/23 10:42:49;;;;;;;4.90;2.30;;;18.80;99.90;;;;;;5057344;28;20219;-82
2023/09/23 10:45:19;;;;;;;2.50;2.10;;;18.90;99.90;;;;;;5058879;28;20292;-82
2023/09/23 10:47:45;;;;;;;2.88;2.05;;;19.10;99.90;;;;;;5055137;28;20220;-82
2023/09/23 10:50:13;;;;;;;2.25;2.05;;;19.30;99.90;;;;;;5048616;28;20231;-82
2023/09/23 10:52:40;;;;;;;2.78;2.13;;;19.50;99.90;;;;;;5060184;28;20211;-82
2023/09/23 10:55:09;;;;;;;2.88;2.38;;;19.70;99.90;;;;;;5057492;28;20592;-82
2023/09/23 10:57:36;;;;;;;3.25;2.13;;;19.80;99.90;;;;;;5072864;28;20657;-82
2023/09/23 11:00:07;;;;;;;2.33;1.80;;;19.90;99.90;;;;;;5057019;28;20227;-83
2023/09/23 11:02:35;;;;;;;2.05;1.83;;;20.00;99.90;;;;;;5053848;28;20280;-84
2023/09/23 11:05:02;;;;;;;2.17;1.92;;;19.90;99.90;;;;;;5046177;28;20219;-84
2023/09/23 11:07:30;;;;;;;3.15;2.20;;;19.80;99.90;;;;;;5055536;28;20230;-84
2023/09/23 11:09:56;;;;;;;2.70;2.50;;;19.70;99.90;;;;;;5055312;28;20731;-84
2023/09/23 11:12:27;;;;;;;2.28;1.83;;;19.70;99.90;;;;;;5056910;28;20247;-84
2023/09/23 11:14:54;;;;;;;2.50;1.83;;;19.60;99.90;;;;;;5056737;28;20226;-84
2023/09/23 11:17:23;;;;;;;2.10;1.90;;;19.70;99.90;;;;;;5054463;28;20219;-83
2023/09/23 11:19:55;;;;;;;2.47;1.73;;;19.70;99.90;;;;;;5056632;28;20219;-83
2023/09/23 11:22:26;;;;;;;3.67;2.20;;;19.70;99.60;;;;;;5051786;28;20228;-83
2023/09/23 11:24:53;;;;;;;2.05;1.85;;;19.70;99.90;;;;;;5058629;28;20219;-82
2023/09/23 11:27:21;;;;;;;1.90;1.73;;;19.80;99.90;;;;;;5053956;28;20251;-83
2023/09/23 11:29:48;;;;;;;1.88;1.55;;;19.90;99.90;;;;;;5057257;28;20223;-84
2023/09/23 11:32:16;;;;;;;1.80;1.70;;;20.00;99.90;;;;;;5055177;28;20216;-84
2023/09/23 11:34:43;;;;;;;2.67;1.80;;;20.20;99.90;;;;;;5057904;28;20310;-85
2023/09/23 11:37:11;;;;;;;3.05;2.22;;;20.40;99.90;;;;;;5049273;28;20655;-84
2023/09/23 11:39:39;;;;;;;3.00;2.15;;;20.60;99.50;;;;;;5052449;28;20230;-84
2023/09/23 11:42:06;;;;;;;3.00;2.25;;;20.70;99.30;;;;;;5055607;28;20833;-84
2023/09/23 11:44:34;;;;;;;2.00;1.83;;;20.80;99.30;;;;;;5057402;28;20227;-82
2023/09/23 11:47:01;;;;;;;1.92;1.83;;;20.80;98.60;;;;;;5057441;28;20294;-83
2023/09/23 11:49:27;;;;;;;2.22;2.00;;;20.80;98.40;;;;;;5056929;28;20775;-82
2023/09/23 11:51:54;;;;;;;2.17;1.95;;;20.70;98.10;;;;;;5072155;28;20217;-83
2023/09/23 11:54:22;;;;;;;2.50;2.00;;;20.50;98.10;;;;;;5047752;28;20232;-83
2023/09/23 11:56:49;;;;;;;2.17;1.98;;;20.40;98.40;;;;;;5056975;28;20752;-83
2023/09/23 11:59:20;;;;;;;4.05;2.10;;;20.40;98.90;;;;;;5056902;28;20247;-83
2023/09/23 12:01:48;;;;;;;2.15;1.92;;;20.40;99.20;;;;;;5057110;28;20215;-83
2023/09/23 12:04:14;;;;;;;2.50;1.83;;;20.40;98.40;;;;;;5059642;28;20234;-83
2023/09/23 12:06:41;;;;;;;4.10;2.28;;;20.40;98.40;;;;;;5056915;28;20231;-82
2023/09/23 12:09:09;;;;;;;2.60;1.83;;;20.40;98.00;;;;;;5050045;28;20230;-83
2023/09/23 12:11:38;;;;;;;2.13;1.67;;;20.40;98.10;;;;;;5052233;28;20231;-83
2023/09/23 12:14:05;;;;;;;2.53;2.10;;;20.30;97.60;;;;;;5051134;28;20219;-83
2023/09/23 12:16:31;;;;;;;2.28;2.08;;;20.10;97.70;;;;;;5049546;28;20227;-83
2023/09/23 12:18:58;;;;;;;2.75;2.47;;;20.00;97.90;;;;;;5051664;28;20689;-83
2023/09/23 12:21:25;;;;;;;2.72;2.47;;;19.80;98.10;;;;;;5053317;28;20227;-83
2023/09/23 12:23:58;;;;;;;5.40;2.72;;;19.70;98.40;;;;;;5052156;28;20223;-83
2023/09/23 12:26:24;;;;;;;2.92;2.50;;;19.60;98.20;;;;;;5053940;28;20231;-83
2023/09/23 12:28:53;;;;;;;3.00;2.30;;;19.60;98.50;;;;;;5056355;28;20859;-83
2023/09/23 12:31:19;;;;;;;3.40;2.88;;;19.50;98.80;;;;;;5052756;28;20215;-83
2023/09/23 12:33:46;;;;;;;3.90;2.67;;;19.40;98.70;;;;;;5051673;28;20596;-83
2023/09/23 12:36:13;;;;;;;3.67;3.38;;;19.50;99.00;;;;;;5043574;23;20227;-83
2023/09/23 12:38:39;;;;;;;3.55;3.22;;;19.40;98.30;;;;;;5031513;28;20224;-83
2023/09/23 12:41:06;;;;;;;4.28;3.88;;;19.40;98.30;;;;;;5036569;28;20244;-83
2023/09/23 12:43:33;;;;;;;6.13;3.80;;;19.20;98.50;;;;;;5040138;28;20234;-83